createdAt,value
2023-01-05T00:02:04.271Z,7.89
2023-01-05T00:04:34.387Z,7.45
2023-01-05T00:07:05.903Z,7.46
2023-01-05T00:09:34.937Z,7.65
2023-01-05T00:12:20.851Z,6.85
2023-01-05T00:15:22.603Z,7.40
2023-01-05T00:18:08.844Z,6.70
2023-01-05T00:20:54.576Z,7.52
2023-01-05T00:23:23.575Z,7.28
2023-01-05T00:25:53.353Z,7.02
2023-01-05T00:28:21.829Z,7.30
2023-01-05T00:30:52.048Z,7.49
2023-01-05T00:33:20.512Z,6.63
2023-01-05T00:35:49.239Z,7.38
2023-01-05T00:38:18.940Z,6.71
2023-01-05T00:40:47.639Z,7.44
2023-01-05T00:43:16.011Z,7.31
2023-01-05T00:45:45.555Z,6.83
2023-01-05T00:48:15.960Z,7.26
2023-01-05T00:50:44.560Z,7.01
2023-01-05T00:53:13.333Z,6.83
2023-01-05T00:55:42.373Z,7.15
2023-01-05T00:58:11.107Z,7.18
2023-01-05T01:00:47.437Z,7.04
2023-01-05T01:03:18.405Z,6.82
2023-01-05T01:05:46.960Z,7.08
2023-01-05T01:08:23.007Z,7.07
2023-01-05T01:10:54.301Z,7.05
2023-01-05T01:13:26.029Z,7.07
2023-01-05T01:15:58.723Z,6.49
2023-01-05T01:18:32.229Z,7.12
2023-01-05T01:21:00.859Z,6.56
2023-01-05T01:23:29.450Z,7.21
2023-01-05T01:25:57.944Z,7.00
2023-01-05T01:28:26.632Z,7.05
2023-01-05T01:30:55.176Z,7.15
2023-01-05T01:33:23.763Z,6.91
2023-01-05T01:35:53.598Z,7.01
2023-01-05T01:38:25.369Z,7.06
2023-01-05T01:40:53.860Z,6.84
2023-01-05T01:43:44.350Z,7.27
2023-01-05T01:46:15.191Z,7.29
2023-01-05T01:48:49.639Z,7.28
2023-01-05T01:51:25.964Z,7.36
2023-01-05T01:54:01.119Z,7.18
2023-01-05T01:56:36.663Z,6.94
2023-01-05T01:59:07.303Z,6.91
2023-01-05T02:01:36.842Z,7.38
2023-01-05T02:04:06.474Z,7.46
2023-01-05T02:06:38.199Z,7.18
2023-01-05T02:09:08.027Z,7.50
2023-01-05T02:11:50.243Z,7.59
2023-01-05T02:14:33.449Z,7.47
2023-01-05T02:17:18.982Z,7.24
2023-01-05T02:20:29.391Z,6.93
2023-01-05T02:23:47.547Z,7.51
2023-01-05T02:27:22.000Z,7.22
2023-01-05T02:30:55.042Z,7.70
2023-01-05T02:33:34.201Z,7.67
2023-01-05T02:36:14.984Z,7.55
2023-01-05T02:38:51.322Z,7.51
2023-01-05T02:41:27.755Z,7.50
2023-01-05T02:43:58.662Z,7.63
2023-01-05T02:46:29.288Z,7.52
2023-01-05T02:49:01.805Z,7.46
2023-01-05T02:51:37.613Z,7.64
2023-01-05T02:54:12.147Z,7.60
2023-01-05T02:56:48.469Z,7.52
2023-01-05T02:59:23.862Z,7.44
2023-01-05T03:01:59.416Z,7.50
2023-01-05T03:04:35.878Z,7.15
2023-01-05T03:07:08.346Z,7.36
2023-01-05T03:09:41.268Z,7.37
2023-01-05T03:12:40.769Z,6.70
2023-01-05T03:15:18.654Z,7.35
2023-01-05T03:17:53.557Z,6.91
2023-01-05T03:20:26.029Z,7.34
2023-01-05T03:23:17.636Z,7.33
2023-01-05T03:26:07.541Z,7.17
2023-01-05T03:28:59.942Z,7.30
2023-01-05T03:31:57.616Z,7.34
2023-01-05T03:34:52.719Z,7.43
2023-01-05T03:37:32.528Z,7.50
2023-01-05T03:40:03.207Z,7.47
2023-01-05T03:42:41.348Z,6.82
2023-01-05T03:45:18.090Z,7.45
2023-01-05T03:47:47.043Z,7.44
2023-01-05T03:50:17.727Z,7.39
2023-01-05T03:52:46.340Z,7.34
2023-01-05T03:55:14.811Z,7.83
2023-01-05T03:57:43.659Z,8.00
2023-01-05T04:00:16.792Z,7.93
2023-01-05T04:02:53.148Z,7.59
2023-01-05T04:05:25.421Z,8.00
2023-01-05T04:07:56.100Z,7.92
2023-01-05T04:10:24.800Z,7.93
2023-01-05T04:12:57.334Z,8.04
2023-01-05T04:15:26.846Z,7.75
2023-01-05T04:17:57.174Z,7.80
2023-01-05T04:20:28.291Z,7.99
2023-01-05T04:22:56.855Z,8.02
2023-01-05T04:25:25.445Z,7.29
2023-01-05T04:27:54.647Z,8.13
2023-01-05T04:30:24.386Z,8.15
2023-01-05T04:32:52.712Z,8.07
2023-01-05T04:35:21.526Z,7.76
2023-01-05T04:37:52.385Z,7.88
2023-01-05T04:40:20.966Z,8.00
2023-01-05T04:42:54.161Z,7.89
2023-01-05T04:45:23.872Z,8.09
2023-01-05T04:47:54.799Z,8.00
2023-01-05T04:50:24.964Z,7.83
2023-01-05T04:52:58.039Z,7.91
2023-01-05T04:55:30.657Z,8.06
2023-01-05T04:58:00.009Z,7.97
2023-01-05T05:00:31.772Z,8.00
2023-01-05T05:03:02.297Z,7.85
2023-01-05T05:05:31.191Z,7.72
2023-01-05T05:08:01.196Z,7.75
2023-01-05T05:10:31.447Z,7.68
2023-01-05T05:13:00.322Z,7.98
2023-01-05T05:15:30.764Z,7.77
2023-01-05T05:18:05.604Z,7.59
2023-01-05T05:20:38.132Z,7.76
2023-01-05T05:23:08.843Z,7.85
2023-01-05T05:25:37.321Z,7.72
2023-01-05T05:28:06.350Z,7.77
2023-01-05T05:30:35.393Z,7.84
2023-01-05T05:33:03.909Z,7.47
2023-01-05T05:35:32.553Z,7.09
2023-01-05T05:38:01.406Z,7.78
2023-01-05T05:40:31.109Z,7.83
2023-01-05T05:42:59.639Z,7.98
2023-01-05T05:45:28.252Z,8.08
2023-01-05T05:47:56.604Z,7.93
2023-01-05T05:50:25.019Z,7.95
2023-01-05T05:52:53.543Z,7.81
2023-01-05T05:55:21.947Z,7.80
2023-01-05T05:57:51.635Z,7.77
2023-01-05T06:00:20.521Z,7.73
2023-01-05T06:02:49.238Z,7.83
2023-01-05T06:05:17.869Z,7.89
2023-01-05T06:07:46.242Z,7.69
2023-01-05T06:10:14.589Z,7.80
2023-01-05T06:12:43.224Z,7.79
2023-01-05T06:15:13.539Z,7.88
2023-01-05T06:17:41.967Z,7.69
2023-01-05T06:20:11.652Z,7.82
2023-01-05T06:22:40.243Z,7.99
2023-01-05T06:25:11.118Z,7.81
2023-01-05T06:27:39.461Z,7.77
2023-01-05T06:30:09.856Z,7.89
2023-01-05T06:32:39.538Z,7.92
2023-01-05T06:35:08.949Z,7.71
2023-01-05T06:37:37.284Z,7.95
2023-01-05T06:40:06.801Z,7.93
2023-01-05T06:42:35.959Z,7.94
2023-01-05T06:45:04.478Z,7.62
2023-01-05T06:47:32.889Z,7.61
2023-01-05T06:50:02.623Z,8.02
2023-01-05T06:52:31.018Z,7.88
2023-01-05T06:54:59.531Z,7.89
2023-01-05T06:57:27.883Z,8.10
2023-01-05T06:59:56.558Z,8.04
2023-01-05T07:02:24.938Z,8.08
2023-01-05T07:04:53.468Z,7.92
2023-01-05T07:07:23.369Z,8.16
2023-01-05T07:09:51.839Z,8.09
2023-01-05T07:12:20.407Z,8.04
2023-01-05T07:14:52.915Z,8.16
2023-01-05T07:17:24.123Z,7.86
2023-01-05T07:19:52.423Z,8.07
2023-01-05T07:22:22.125Z,7.95
2023-01-05T07:24:50.445Z,7.74
2023-01-05T07:27:18.715Z,7.81
2023-01-05T07:29:47.162Z,7.73
2023-01-05T07:32:15.463Z,7.72
2023-01-05T07:34:51.299Z,7.87
2023-01-05T07:37:25.617Z,7.75
2023-01-05T07:39:54.129Z,7.94
2023-01-05T07:42:22.485Z,7.95
2023-01-05T07:44:52.412Z,7.82
2023-01-05T07:47:21.168Z,7.76
2023-01-05T07:49:49.863Z,7.68
2023-01-05T07:52:18.668Z,7.45
2023-01-05T07:54:48.586Z,7.64
2023-01-05T07:57:16.964Z,7.55
2023-01-05T07:59:45.449Z,7.46
2023-01-05T08:02:14.012Z,7.68
2023-01-05T08:04:42.566Z,7.61
2023-01-05T08:07:11.560Z,7.49
2023-01-05T08:09:57.597Z,7.62
2023-01-05T08:12:29.491Z,7.65
2023-01-05T08:14:56.911Z,7.50
2023-01-05T08:17:26.647Z,7.59
2023-01-05T08:19:54.981Z,7.57
2023-01-05T08:22:23.583Z,7.61
2023-01-05T08:24:52.276Z,7.81
2023-01-05T08:27:20.728Z,7.84
2023-01-05T08:29:50.510Z,7.77
2023-01-05T08:32:18.889Z,7.75
2023-01-05T08:34:53.545Z,7.88
2023-01-05T08:37:23.748Z,7.61
2023-01-05T08:39:52.184Z,7.85
2023-01-05T08:42:20.495Z,7.95
2023-01-05T08:44:50.214Z,8.00
2023-01-05T08:47:18.763Z,8.32
2023-01-05T08:49:47.976Z,8.27
2023-01-05T08:52:17.596Z,7.99
2023-01-05T08:54:45.981Z,7.89
2023-01-05T08:57:14.597Z,8.03
2023-01-05T08:59:42.883Z,8.11
2023-01-05T09:02:18.930Z,8.11
2023-01-05T09:04:51.824Z,8.21
2023-01-05T09:07:20.321Z,8.33
2023-01-05T09:09:48.705Z,8.21
2023-01-05T09:12:17.278Z,7.91
2023-01-05T09:14:45.898Z,8.16
2023-01-05T09:17:15.707Z,8.24
2023-01-05T09:19:44.219Z,8.32
2023-01-05T09:22:12.651Z,7.71
2023-01-05T09:24:40.967Z,8.21
2023-01-05T09:27:09.436Z,8.28
2023-01-05T09:29:37.836Z,8.31
2023-01-05T09:32:07.716Z,8.47
2023-01-05T09:34:37.455Z,8.62
2023-01-05T09:37:05.880Z,8.53
2023-01-05T09:39:34.342Z,8.76
2023-01-05T09:42:07.472Z,8.60
2023-01-05T09:44:38.431Z,8.40
2023-01-05T09:47:16.914Z,8.48
2023-01-05T09:49:48.733Z,8.85
2023-01-05T09:52:20.233Z,8.59
2023-01-05T09:54:48.615Z,8.76
2023-01-05T09:57:21.704Z,8.69
2023-01-05T09:59:52.811Z,8.36
2023-01-05T10:02:33.906Z,8.58
2023-01-05T10:05:06.236Z,8.52
2023-01-05T10:07:45.180Z,8.63
2023-01-05T10:10:33.209Z,8.76
2023-01-05T10:13:03.453Z,8.57
2023-01-05T10:15:41.912Z,8.84
2023-01-05T10:18:15.169Z,8.93
2023-01-05T10:21:04.761Z,8.80
2023-01-05T10:23:57.081Z,9.01
2023-01-05T10:26:51.061Z,8.84
2023-01-05T10:29:27.476Z,8.79
2023-01-05T10:32:03.077Z,8.51
2023-01-05T10:34:55.277Z,9.21
2023-01-05T10:37:48.572Z,9.43
2023-01-05T10:40:33.989Z,9.20
2023-01-05T10:43:25.201Z,9.45
2023-01-05T10:46:28.595Z,9.31
2023-01-05T10:48:42.153Z,8.95
2023-01-05T10:51:11.100Z,9.11
2023-01-05T10:53:44.118Z,9.08
2023-01-05T10:56:16.533Z,9.06
2023-01-05T10:58:46.960Z,9.06
2023-01-05T11:01:26.121Z,9.04
2023-01-05T11:06:52.772Z,8.98
2023-01-05T11:09:26.457Z,8.89
2023-01-05T11:11:57.163Z,8.89
2023-01-05T11:14:26.740Z,8.96
2023-01-05T11:17:03.051Z,9.13
2023-01-05T11:19:36.425Z,9.11
2023-01-05T11:22:04.847Z,9.27
2023-01-05T12:14:07.687Z,9.08
2023-01-05T12:16:49.683Z,9.31
2023-01-05T12:20:03.406Z,9.17
2023-01-05T12:23:06.443Z,8.76
2023-01-05T12:25:50.602Z,8.86
2023-01-05T12:28:43.944Z,9.27
2023-01-05T12:34:58.602Z,9.03
2023-01-05T12:37:43.054Z,9.64
2023-01-05T12:40:42.791Z,9.59
2023-01-05T12:43:20.805Z,9.66
2023-01-05T12:46:13.924Z,9.68
2023-01-05T12:48:48.415Z,9.49
2023-01-05T12:51:25.475Z,9.40
2023-01-05T12:54:01.382Z,8.72
2023-01-05T12:56:37.790Z,9.66
2023-01-05T12:59:18.563Z,9.31
2023-01-05T13:01:58.345Z,9.41
2023-01-05T13:04:47.562Z,9.10
2023-01-05T13:07:26.513Z,9.81
2023-01-05T13:10:03.380Z,9.76
2023-01-05T13:12:35.936Z,8.65
2023-01-05T13:15:20.713Z,9.35
2023-01-05T13:17:56.928Z,9.75
2023-01-05T13:20:35.628Z,9.61
2023-01-05T13:23:11.361Z,9.55
2023-01-05T13:25:53.333Z,9.06
2023-01-05T13:28:27.498Z,9.40
2023-01-05T13:31:47.559Z,9.56
2023-01-05T13:35:13.581Z,8.63
2023-01-05T13:38:40.788Z,9.31
2023-01-05T13:41:49.972Z,9.28
2023-01-05T13:44:58.787Z,9.70
2023-01-05T13:47:48.264Z,9.87
2023-01-05T13:51:12.367Z,9.89
2023-01-05T13:53:45.640Z,10.03
2023-01-05T13:56:22.198Z,9.14
2023-01-05T13:59:01.377Z,9.82
2023-01-05T14:05:30.662Z,9.32
2023-01-05T14:08:06.640Z,8.71
2023-01-05T14:10:38.680Z,8.32
2023-01-05T14:13:45.143Z,8.91
2023-01-05T14:16:54.681Z,9.47
2023-01-05T14:19:54.198Z,9.34
2023-01-05T14:22:42.462Z,8.92
2023-01-05T14:25:50.817Z,9.82
2023-01-05T14:28:46.361Z,9.67
2023-01-05T14:31:39.679Z,9.40
2023-01-05T14:34:21.052Z,8.72
2023-01-05T14:37:09.147Z,8.52
2023-01-05T14:39:45.971Z,8.75
2023-01-05T14:42:32.581Z,9.51
2023-01-05T14:45:07.546Z,9.07
2023-01-05T14:47:43.447Z,8.20
2023-01-05T14:53:15.492Z,9.20
2023-01-05T14:56:19.898Z,9.29
2023-01-05T14:59:06.594Z,8.97
2023-01-05T15:01:42.717Z,8.92
2023-01-05T15:04:19.544Z,9.19
2023-01-05T15:07:11.346Z,9.06
2023-01-05T15:10:13.119Z,9.03
2023-01-05T15:13:00.288Z,8.99
2023-01-05T15:15:51.269Z,8.72
2023-01-05T15:19:04.284Z,8.91
2023-01-05T15:22:07.940Z,9.32
2023-01-05T15:25:19.905Z,9.27
2023-01-05T15:28:14.246Z,9.32
2023-01-05T15:31:17.030Z,9.14
2023-01-05T15:33:51.400Z,9.31
2023-01-05T15:36:28.056Z,9.13
2023-01-05T15:38:57.662Z,9.27
2023-01-05T15:41:29.888Z,8.94
2023-01-05T15:43:58.375Z,9.02
2023-01-05T15:46:35.273Z,9.09
2023-01-05T15:49:03.721Z,9.10
2023-01-05T15:51:34.157Z,9.15
2023-01-05T15:54:05.530Z,9.14
2023-01-05T15:56:41.233Z,8.96
2023-01-05T15:59:29.232Z,9.08
2023-01-05T16:01:58.392Z,9.20
2023-01-05T16:04:27.874Z,8.83
2023-01-05T16:07:02.602Z,9.02
2023-01-05T16:09:35.612Z,8.96
2023-01-05T16:12:10.543Z,9.10
2023-01-05T16:14:44.413Z,8.93
2023-01-05T16:17:17.157Z,8.70
2023-01-05T16:19:51.622Z,8.94
2023-01-05T16:22:26.968Z,8.89
2023-01-05T16:25:04.112Z,8.79
2023-01-05T16:27:39.581Z,8.80
2023-01-05T16:30:29.247Z,8.84
2023-01-05T16:32:59.950Z,8.51
2023-01-05T16:35:41.348Z,8.38
2023-01-05T16:38:28.036Z,8.55
2023-01-05T16:41:13.716Z,8.81
2023-01-05T16:43:53.152Z,8.84
2023-01-05T16:46:39.037Z,8.52
2023-01-05T16:49:35.077Z,8.62
2023-01-05T16:52:08.567Z,8.77
2023-01-05T16:54:41.615Z,8.68
2023-01-05T16:57:34.733Z,8.90
2023-01-05T17:00:25.755Z,8.53
2023-01-05T17:02:54.880Z,8.75
2023-01-05T17:05:25.517Z,8.55
2023-01-05T17:08:04.033Z,8.71
2023-01-05T17:10:32.966Z,8.82
2023-01-05T17:13:06.616Z,8.72
2023-01-05T17:15:37.802Z,8.62
2023-01-05T17:18:17.456Z,8.63
2023-01-05T17:20:47.433Z,8.67
2023-01-05T17:23:22.393Z,9.10
2023-01-05T17:28:22.310Z,9.39
2023-01-05T17:30:52.800Z,9.41
2023-01-05T17:33:21.513Z,9.21
2023-01-05T17:35:50.613Z,9.43
2023-01-05T17:38:19.701Z,9.24
2023-01-05T17:40:48.416Z,9.26
2023-01-05T17:43:18.580Z,9.26
2023-01-05T17:45:47.462Z,9.11
2023-01-05T17:48:17.246Z,9.45
2023-01-05T17:50:46.182Z,9.43
2023-01-05T17:53:14.575Z,9.28
2023-01-05T17:55:44.060Z,9.28
2023-01-05T17:58:15.898Z,9.08
2023-01-05T18:03:21.701Z,9.18
2023-01-05T18:05:52.588Z,8.92
2023-01-05T18:08:21.741Z,9.24
2023-01-05T18:10:50.363Z,9.29
2023-01-05T18:13:21.491Z,8.94
2023-01-05T18:15:53.044Z,9.31
2023-01-05T18:18:24.253Z,9.17
2023-01-05T18:20:53.340Z,9.43
2023-01-05T18:23:24.389Z,9.46
2023-01-05T18:25:52.973Z,9.62
2023-01-05T18:28:21.463Z,9.40
2023-01-05T18:30:50.018Z,9.39
2023-01-05T18:33:18.348Z,9.48
2023-01-05T18:35:50.418Z,9.49
2023-01-05T18:38:18.996Z,9.48
2023-01-05T18:40:50.213Z,9.12
2023-01-05T18:43:18.828Z,9.57
2023-01-05T18:45:47.117Z,9.55
2023-01-05T18:48:15.621Z,9.55
2023-01-05T18:50:49.924Z,9.46
2023-01-05T18:53:22.990Z,9.15
2023-01-05T18:55:51.494Z,9.20
2023-01-05T18:58:19.994Z,9.25
2023-01-05T19:00:48.580Z,8.99
2023-01-05T19:03:17.243Z,9.13
2023-01-05T19:05:46.013Z,8.94
2023-01-05T19:08:15.182Z,8.83
2023-01-05T19:10:44.853Z,8.80
2023-01-05T19:13:13.301Z,8.86
2023-01-05T19:15:41.697Z,8.57
2023-01-05T19:18:10.109Z,8.73
2023-01-05T19:20:38.899Z,8.80
2023-01-05T19:23:07.386Z,8.78
2023-01-05T19:25:35.810Z,8.80
2023-01-05T19:28:05.585Z,8.57
2023-01-05T19:30:34.179Z,8.68
2023-01-05T19:33:02.566Z,8.74
2023-01-05T19:35:31.481Z,8.72
2023-01-05T19:38:00.770Z,8.78
2023-01-05T19:40:29.607Z,8.74
2023-01-05T19:42:58.050Z,8.68
2023-01-05T19:45:27.837Z,8.37
2023-01-05T19:47:56.145Z,8.66
2023-01-05T19:50:24.557Z,8.26
2023-01-05T19:52:53.663Z,8.74
2023-01-05T19:55:23.215Z,8.67
2023-01-05T19:57:51.542Z,8.40
2023-01-05T20:00:19.955Z,8.49
2023-01-05T20:02:49.830Z,8.49
2023-01-05T20:05:18.447Z,8.53
2023-01-05T20:07:48.397Z,8.10
2023-01-05T20:10:17.963Z,8.27
2023-01-05T20:12:46.407Z,8.19
2023-01-05T20:15:14.818Z,8.25
2023-01-05T20:17:45.422Z,8.30
2023-01-05T20:20:15.646Z,8.22
2023-01-05T20:22:44.038Z,8.56
2023-01-05T20:25:12.828Z,8.48
2023-01-05T20:27:41.342Z,8.38
2023-01-05T20:30:11.427Z,8.40
2023-01-05T20:32:39.981Z,8.21
2023-01-05T20:35:08.981Z,8.50
2023-01-05T20:37:38.815Z,8.26
2023-01-05T20:40:08.416Z,8.53
2023-01-05T20:42:38.220Z,8.36
2023-01-05T20:45:08.208Z,8.62
2023-01-05T20:47:46.870Z,8.21
2023-01-05T20:50:16.047Z,8.07
2023-01-05T20:52:46.039Z,7.95
2023-01-05T20:55:17.866Z,7.94
2023-01-05T20:57:50.201Z,7.83
2023-01-05T21:00:18.773Z,8.08
2023-01-05T21:02:48.540Z,8.16
2023-01-05T21:05:17.593Z,7.94
2023-01-05T21:07:47.909Z,7.90
2023-01-05T21:10:16.523Z,7.87
2023-01-05T21:12:47.054Z,7.93
2023-01-05T21:15:15.423Z,8.02
2023-01-05T21:17:43.885Z,8.11
2023-01-05T21:20:12.486Z,8.19
2023-01-05T21:22:41.055Z,8.09
2023-01-05T21:25:11.608Z,8.08
2023-01-05T21:27:43.953Z,8.10
2023-01-05T21:30:14.418Z,8.13
2023-01-05T21:32:42.909Z,8.22
2023-01-05T21:35:11.585Z,8.15
2023-01-05T21:37:39.980Z,8.17
2023-01-05T21:40:12.682Z,8.02
2023-01-05T21:42:40.159Z,8.41
2023-01-05T21:45:10.953Z,8.44
2023-01-05T21:47:40.311Z,8.29
2023-01-05T21:50:10.395Z,8.51
2023-01-05T21:53:10.757Z,8.43
2023-01-05T21:55:57.782Z,8.51
2023-01-05T21:58:26.386Z,8.55
2023-01-05T22:01:00.528Z,8.56
2023-01-05T22:03:29.707Z,8.55
2023-01-05T22:05:58.105Z,8.16
2023-01-05T22:08:26.575Z,8.26
2023-01-05T22:10:57.406Z,8.14
2023-01-05T22:13:26.682Z,8.31
2023-01-05T22:15:55.087Z,8.37
2023-01-05T22:18:25.923Z,8.03
2023-01-05T22:20:59.161Z,8.30
2023-01-05T22:23:27.940Z,8.46
2023-01-05T22:26:02.740Z,8.32
2023-01-05T22:28:31.769Z,8.43
2023-01-05T22:31:09.553Z,8.21
2023-01-05T22:33:40.447Z,8.35
2023-01-05T22:36:10.225Z,8.10
2023-01-05T22:38:41.336Z,8.10
2023-01-05T22:41:14.999Z,8.16
2023-01-05T22:43:44.419Z,8.05
2023-01-05T22:46:16.489Z,8.24
2023-01-05T22:48:46.633Z,8.15
2023-01-05T22:51:18.279Z,8.16
2023-01-05T22:53:46.763Z,7.94
2023-01-05T22:56:18.670Z,8.30
2023-01-05T22:58:47.519Z,8.32
2023-01-05T23:01:27.618Z,8.30
2023-01-05T23:03:58.725Z,8.18
2023-01-05T23:06:28.124Z,8.10
2023-01-05T23:08:57.340Z,7.97
2023-01-05T23:11:29.387Z,8.27
2023-01-05T23:14:00.088Z,8.04
2023-01-05T23:16:29.447Z,8.24
2023-01-05T23:18:58.221Z,8.44
2023-01-05T23:21:28.049Z,8.20
2023-01-05T23:23:58.459Z,8.25
2023-01-05T23:26:29.384Z,8.46
2023-01-05T23:28:58.351Z,8.36
2023-01-05T23:31:27.162Z,8.44
2023-01-05T23:33:55.651Z,8.20
2023-01-05T23:36:25.700Z,8.32
2023-01-05T23:38:54.013Z,8.25
2023-01-05T23:41:22.686Z,8.12
2023-01-05T23:43:52.412Z,8.44
2023-01-05T23:46:23.669Z,8.21
2023-01-05T23:48:53.313Z,8.29
2023-01-05T23:51:22.006Z,8.21
2023-01-05T23:53:52.663Z,8.15
2023-01-05T23:56:23.153Z,8.33
2023-01-05T23:58:57.586Z,8.08
